Time;durP1;ratioP1;P1;durP2;ratioP2;P2;SDS_P1;SDS_P2;PMS_P1;PMS_P2;Temp;Humidity;BMP_temperature;BMP_pressure;BME280_temperature;BME280_humidity;BME280_pressure;Samples;Min_cycle;Max_cycle;Signal;HPM_P1;HPM_P2
2020/12/30 00:02:26;;;;;;;3.47;3.13;;;4.60;99.90;;;;;;5032457;28;20793;-72
2020/12/30 00:04:53;;;;;;;7.60;4.40;;;4.60;99.90;;;;;;5019365;28;20530;-72
2020/12/30 00:07:19;;;;;;;8.77;3.93;;;4.60;99.90;;;;;;5022874;28;20468;-72
2020/12/30 00:09:46;;;;;;;7.13;4.63;;;4.50;99.90;;;;;;5023356;28;20494;-72
2020/12/30 00:12:13;;;;;;;7.97;3.77;;;4.60;99.90;;;;;;5026935;28;20467;-72
2020/12/30 00:14:40;;;;;;;10.20;4.20;;;4.60;99.90;;;;;;5022603;28;20851;-72
2020/12/30 00:17:07;;;;;;;4.90;4.17;;;4.50;99.90;;;;;;5021079;28;20518;-73
2020/12/30 00:19:33;;;;;;;8.93;5.07;;;4.40;99.90;;;;;;5022461;28;20551;-72
2020/12/30 00:22:00;;;;;;;7.37;4.70;;;4.30;99.90;;;;;;5020429;28;20456;-73
2020/12/30 00:24:27;;;;;;;5.53;4.20;;;4.30;99.90;;;;;;5025122;28;20748;-70
2020/12/30 00:26:53;;;;;;;4.73;2.87;;;4.30;99.90;;;;;;5022838;28;20431;-72
2020/12/30 00:29:21;;;;;;;2.73;2.30;;;4.20;99.90;;;;;;5021501;28;20529;-72
2020/12/30 00:31:47;;;;;;;4.80;3.20;;;4.20;99.90;;;;;;5024358;28;20464;-72
2020/12/30 00:34:14;;;;;;;9.70;7.10;;;4.10;99.90;;;;;;5022068;28;20484;-72
2020/12/30 00:36:41;;;;;;;3.87;2.20;;;4.10;99.90;;;;;;5026109;28;20930;-72
2020/12/30 00:39:07;;;;;;;6.20;5.20;;;4.10;99.90;;;;;;5027487;28;20484;-72
2020/12/30 00:41:34;;;;;;;9.97;4.13;;;4.00;99.90;;;;;;5028783;28;21044;-72
2020/12/30 00:44:01;;;;;;;6.07;3.90;;;3.90;99.90;;;;;;5027359;28;20550;-73
2020/12/30 00:46:28;;;;;;;22.33;5.30;;;4.00;99.90;;;;;;5025836;28;20446;-70
2020/12/30 00:48:55;;;;;;;3.77;2.90;;;4.00;99.90;;;;;;5025765;28;20574;-70
2020/12/30 00:51:21;;;;;;;5.63;5.00;;;3.90;99.90;;;;;;5019716;28;20480;-70
2020/12/30 00:53:48;;;;;;;4.10;3.43;;;3.70;99.90;;;;;;5027173;28;20505;-70
2020/12/30 00:56:15;;;;;;;6.20;5.23;;;3.90;99.90;;;;;;5025659;28;20443;-71
2020/12/30 00:58:41;;;;;;;5.83;4.87;;;3.90;99.90;;;;;;5020843;28;20519;-70
2020/12/30 01:01:09;;;;;;;10.47;5.30;;;3.70;99.90;;;;;;5026298;28;20876;-72
2020/12/30 01:03:39;;;;;;;3.53;2.30;;;3.80;99.90;;;;;;5022796;28;20991;-70
2020/12/30 01:06:06;;;;;;;4.80;3.93;;;3.80;99.90;;;;;;5024118;28;20491;-71
2020/12/30 01:08:33;;;;;;;5.37;4.47;;;3.80;99.90;;;;;;5025843;28;20458;-72
2020/12/30 01:10:59;;;;;;;6.10;2.83;;;3.70;99.90;;;;;;5021659;28;20484;-72
2020/12/30 01:13:26;;;;;;;9.63;5.77;;;3.70;99.90;;;;;;5021815;28;20919;-71
2020/12/30 01:15:53;;;;;;;6.20;4.53;;;3.50;99.90;;;;;;5021749;28;20463;-72
2020/12/30 01:18:20;;;;;;;6.07;5.10;;;3.50;99.90;;;;;;5024556;28;20430;-71
2020/12/30 01:20:48;;;;;;;4.43;4.03;;;3.50;99.90;;;;;;5020514;28;20431;-72
2020/12/30 01:23:15;;;;;;;7.10;5.50;;;3.50;99.90;;;;;;5020670;28;20563;-71
2020/12/30 01:25:41;;;;;;;5.53;3.80;;;3.30;99.90;;;;;;5004747;28;20501;-71
2020/12/30 01:28:08;;;;;;;3.50;3.20;;;3.20;99.90;;;;;;5016155;28;20489;-71
2020/12/30 01:30:34;;;;;;;5.63;4.40;;;3.30;99.90;;;;;;5025136;28;20488;-71
2020/12/30 01:33:01;;;;;;;5.63;4.23;;;3.30;99.90;;;;;;5020943;28;20517;-72
2020/12/30 01:35:28;;;;;;;5.77;4.10;;;3.30;99.90;;;;;;5007208;28;20555;-71
2020/12/30 01:37:55;;;;;;;7.53;5.77;;;3.30;99.90;;;;;;5023465;28;20463;-71
2020/12/30 01:40:22;;;;;;;3.90;3.60;;;3.30;99.90;;;;;;5028720;28;20534;-72
2020/12/30 01:42:49;;;;;;;8.80;5.50;;;3.20;99.90;;;;;;5025801;28;20480;-71
2020/12/30 01:45:16;;;;;;;8.73;4.47;;;3.10;99.90;;;;;;5021694;28;20857;-73
2020/12/30 01:47:48;;;;;;;5.40;4.80;;;3.00;99.90;;;;;;5025422;28;20474;-71
2020/12/30 01:50:15;;;;;;;7.87;4.23;;;3.00;99.90;;;;;;5024893;28;20466;-71
2020/12/30 01:52:42;;;;;;;8.13;6.70;;;2.90;99.90;;;;;;5025655;28;20546;-71
2020/12/30 01:55:11;;;;;;;12.00;4.93;;;2.90;99.90;;;;;;5022265;28;20535;-71
2020/12/30 01:57:38;;;;;;;7.17;5.00;;;2.90;99.90;;;;;;5019189;28;20976;-71
2020/12/30 02:00:07;;;;;;;4.13;3.30;;;2.80;99.90;;;;;;5017830;28;20582;-71
2020/12/30 02:02:35;;;;;;;10.90;6.97;;;2.80;99.90;;;;;;5023463;28;20480;-71
2020/12/30 02:05:03;;;;;;;7.23;4.00;;;2.90;99.90;;;;;;5017437;28;20461;-72
2020/12/30 02:07:30;;;;;;;8.57;4.73;;;2.90;99.90;;;;;;5016716;28;20439;-72
2020/12/30 02:09:58;;;;;;;7.53;6.57;;;2.80;99.90;;;;;;5019405;28;20458;-72
2020/12/30 02:12:27;;;;;;;9.07;5.60;;;2.90;99.90;;;;;;5021182;28;20514;-71
2020/12/30 02:14:54;;;;;;;8.10;6.20;;;2.70;99.90;;;;;;5020806;28;20541;-72
2020/12/30 02:17:20;;;;;;;7.57;4.83;;;2.70;99.90;;;;;;5025667;28;20545;-71
2020/12/30 02:19:47;;;;;;;4.97;3.40;;;2.60;99.90;;;;;;5020463;28;20596;-71
2020/12/30 02:22:19;;;;;;;18.30;4.30;;;2.50;99.90;;;;;;5022117;28;20451;-71
2020/12/30 02:24:48;;;;;;;8.00;4.10;;;2.60;99.90;;;;;;5021082;28;20513;-71
2020/12/30 02:27:15;;;;;;;5.53;4.10;;;2.60;99.90;;;;;;5021976;28;20522;-71
2020/12/30 02:29:42;;;;;;;4.10;3.77;;;2.50;99.90;;;;;;5023768;28;20542;-71
2020/12/30 02:32:08;;;;;;;8.80;6.70;;;2.30;99.90;;;;;;5016691;28;20594;-71
2020/12/30 02:34:35;;;;;;;6.03;3.23;;;2.10;99.90;;;;;;5023444;28;20525;-71
2020/12/30 02:37:02;;;;;;;8.00;4.53;;;2.00;99.90;;;;;;5022789;28;22232;-71
2020/12/30 02:39:29;;;;;;;4.50;4.10;;;2.00;99.90;;;;;;5024079;28;20451;-71
2020/12/30 02:41:57;;;;;;;9.17;5.40;;;1.90;99.90;;;;;;5021340;28;20465;-72
2020/12/30 02:44:23;;;;;;;8.03;5.57;;;1.80;99.90;;;;;;5023987;28;20556;-72
2020/12/30 02:46:50;;;;;;;6.13;3.27;;;1.80;99.90;;;;;;5022285;28;20955;-72
2020/12/30 02:49:17;;;;;;;7.77;4.50;;;1.80;99.90;;;;;;5025954;28;20495;-71
2020/12/30 02:51:44;;;;;;;5.17;4.37;;;1.80;99.90;;;;;;5025002;28;20464;-71
2020/12/30 02:54:11;;;;;;;8.53;4.23;;;1.70;99.90;;;;;;5025978;28;20486;-71
2020/12/30 02:56:37;;;;;;;5.77;5.17;;;1.70;99.90;;;;;;5019542;28;20530;-71
2020/12/30 02:59:05;;;;;;;5.47;3.57;;;1.70;99.90;;;;;;5020798;28;20427;-72
2020/12/30 03:01:35;;;;;;;9.33;3.93;;;1.70;99.90;;;;;;5024267;28;20473;-72
2020/12/30 03:04:01;;;;;;;6.23;4.00;;;1.70;99.90;;;;;;5024659;28;20878;-71
2020/12/30 03:06:28;;;;;;;5.83;4.23;;;1.70;99.90;;;;;;5018662;28;20480;-71
2020/12/30 03:08:54;;;;;;;8.83;4.40;;;1.80;99.90;;;;;;5019002;28;21035;-72
2020/12/30 03:11:21;;;;;;;5.63;5.17;;;1.80;99.90;;;;;;5024570;28;20484;-72
2020/12/30 03:13:48;;;;;;;4.37;2.90;;;1.80;99.90;;;;;;5019985;28;20801;-71
2020/12/30 03:16:15;;;;;;;5.20;4.70;;;1.70;99.90;;;;;;5018094;28;20435;-71
2020/12/30 03:18:42;;;;;;;10.70;5.07;;;1.70;99.90;;;;;;5026383;28;20510;-71
2020/12/30 03:21:09;;;;;;;5.40;5.00;;;1.70;99.90;;;;;;5020103;28;20510;-71
2020/12/30 03:23:35;;;;;;;4.67;2.30;;;1.80;99.90;;;;;;5019734;28;20992;-71
2020/12/30 03:26:02;;;;;;;19.93;4.13;;;1.70;99.90;;;;;;5019672;28;20548;-71
2020/12/30 03:28:28;;;;;;;4.37;3.97;;;1.70;99.90;;;;;;5021641;28;20557;-71
2020/12/30 03:30:55;;;;;;;12.70;5.30;;;1.70;99.90;;;;;;5024508;28;20467;-71
2020/12/30 03:33:23;;;;;;;6.27;3.37;;;1.80;99.90;;;;;;5020998;28;20459;-71
2020/12/30 03:35:49;;;;;;;4.40;3.40;;;1.80;99.90;;;;;;5023123;28;20573;-70
2020/12/30 03:38:16;;;;;;;6.43;5.80;;;1.80;99.90;;;;;;5016866;28;20825;-72
2020/12/30 03:40:43;;;;;;;7.17;4.13;;;1.90;99.90;;;;;;5022457;28;20496;-71
2020/12/30 03:43:10;;;;;;;7.80;5.93;;;2.00;99.90;;;;;;5021287;28;20490;-72
2020/12/30 03:45:36;;;;;;;6.83;4.83;;;1.90;99.90;;;;;;5014916;28;20536;-71
2020/12/30 03:48:03;;;;;;;10.00;4.50;;;1.90;99.90;;;;;;5022318;28;20435;-73
2020/12/30 03:50:31;;;;;;;6.97;4.20;;;1.90;99.90;;;;;;5017068;28;20551;-71
2020/12/30 03:52:57;;;;;;;9.37;5.57;;;2.00;99.90;;;;;;5026733;28;20525;-71
2020/12/30 03:55:24;;;;;;;4.63;2.50;;;2.10;99.90;;;;;;5020080;28;20566;-71
2020/12/30 03:57:50;;;;;;;18.93;6.40;;;2.20;99.90;;;;;;5023529;28;20466;-71
2020/12/30 04:00:17;;;;;;;11.00;4.50;;;2.20;99.90;;;;;;5022514;28;20526;-71
2020/12/30 04:02:44;;;;;;;5.80;4.73;;;2.20;99.90;;;;;;5027898;28;20578;-72
2020/12/30 04:05:10;;;;;;;6.87;4.27;;;2.20;99.90;;;;;;5020150;28;21585;-71
2020/12/30 04:07:38;;;;;;;9.90;8.70;;;2.20;99.90;;;;;;5023863;28;20446;-71
2020/12/30 04:10:05;;;;;;;9.27;4.13;;;2.30;99.90;;;;;;5036131;28;20455;-72
2020/12/30 04:12:31;;;;;;;8.53;7.27;;;2.50;99.90;;;;;;5022900;28;20595;-72
2020/12/30 04:14:58;;;;;;;6.37;5.77;;;2.50;99.90;;;;;;5021839;28;20838;-71
2020/12/30 04:17:24;;;;;;;6.97;5.87;;;2.50;99.90;;;;;;5023022;28;20483;-71
2020/12/30 04:19:51;;;;;;;7.70;5.70;;;2.60;99.90;;;;;;5020536;28;20541;-72
2020/12/30 04:22:17;;;;;;;7.47;6.53;;;2.60;99.90;;;;;;5026747;28;20475;-71
2020/12/30 04:24:45;;;;;;;13.13;7.93;;;2.70;99.90;;;;;;5029849;28;20988;-71
2020/12/30 04:27:11;;;;;;;9.87;6.57;;;2.70;99.90;;;;;;5027320;28;20890;-71
2020/12/30 04:29:38;;;;;;;10.10;6.20;;;2.70;99.90;;;;;;5031250;28;20567;-71
2020/12/30 04:32:05;;;;;;;11.33;7.10;;;2.70;99.90;;;;;;5024335;28;20542;-71
2020/12/30 04:34:31;;;;;;;15.27;8.20;;;2.70;99.90;;;;;;5030091;28;20686;-70
2020/12/30 04:36:58;;;;;;;8.90;5.60;;;2.80;99.90;;;;;;5031679;28;20480;-71
2020/12/30 04:39:25;;;;;;;11.13;6.27;;;2.90;99.90;;;;;;5026272;28;20549;-72
2020/12/30 04:41:54;;;;;;;17.90;7.40;;;3.00;99.90;;;;;;5031011;28;20466;-72
2020/12/30 04:44:21;;;;;;;7.93;6.27;;;3.10;99.90;;;;;;5028163;28;20543;-72
2020/12/30 04:46:49;;;;;;;12.03;7.97;;;3.20;99.90;;;;;;5029597;28;20463;-72
2020/12/30 04:49:16;;;;;;;10.87;6.70;;;3.20;99.90;;;;;;5033392;28;21106;-72
2020/12/30 04:51:43;;;;;;;10.70;6.50;;;3.40;99.90;;;;;;5027319;28;20488;-71
2020/12/30 04:54:10;;;;;;;16.83;9.80;;;3.40;99.90;;;;;;5034492;28;20497;-71
2020/12/30 04:56:59;;;;;;;16.50;7.77;;;3.40;99.90;;;;;;5033121;28;20450;-71
2020/12/30 04:59:30;;;;;;;9.73;5.77;;;3.30;99.90;;;;;;5030089;28;20477;-71
2020/12/30 05:02:04;;;;;;;12.63;7.33;;;3.30;99.90;;;;;;5030511;28;20491;-70
2020/12/30 05:04:35;;;;;;;14.90;7.37;;;3.50;99.90;;;;;;5025543;28;20502;-71
2020/12/30 05:07:06;;;;;;;12.37;8.90;;;3.40;99.90;;;;;;5028667;28;20443;-72
2020/12/30 05:09:34;;;;;;;10.97;7.17;;;3.40;99.90;;;;;;5028158;28;20491;-71
2020/12/30 05:12:02;;;;;;;16.57;7.73;;;3.30;99.90;;;;;;5032584;28;20456;-72
2020/12/30 05:14:29;;;;;;;16.13;6.77;;;3.30;99.90;;;;;;5027634;28;20483;-72
2020/12/30 05:16:55;;;;;;;10.27;7.20;;;3.20;99.90;;;;;;5042485;28;20559;-73
2020/12/30 05:19:22;;;;;;;12.03;8.47;;;3.20;99.90;;;;;;5029842;28;20570;-72
2020/12/30 05:21:50;;;;;;;9.27;6.67;;;3.20;99.90;;;;;;5031009;28;20495;-72
2020/12/30 05:24:19;;;;;;;11.00;8.43;;;3.20;99.90;;;;;;5027488;28;20501;-72
2020/12/30 05:26:46;;;;;;;12.47;6.73;;;3.20;99.90;;;;;;5027456;28;20547;-72
2020/12/30 05:29:14;;;;;;;15.97;8.50;;;3.30;99.90;;;;;;5017988;28;20510;-72
2020/12/30 05:31:41;;;;;;;13.67;6.50;;;3.40;99.90;;;;;;5030656;28;20871;-72
2020/12/30 05:34:07;;;;;;;11.50;6.97;;;3.50;99.90;;;;;;5019916;28;20519;-71
2020/12/30 05:36:37;;;;;;;9.27;6.83;;;3.60;99.90;;;;;;5024176;28;20835;-72
2020/12/30 05:39:04;;;;;;;9.53;5.80;;;3.60;99.90;;;;;;5024349;28;20469;-72
2020/12/30 05:41:31;;;;;;;16.97;8.77;;;3.70;99.90;;;;;;5023800;28;20460;-72
2020/12/30 05:43:58;;;;;;;13.77;5.67;;;3.70;99.90;;;;;;5022664;28;20538;-72
2020/12/30 05:46:28;;;;;;;9.57;8.50;;;3.80;99.90;;;;;;5028141;28;20962;-72
2020/12/30 05:48:54;;;;;;;11.40;7.40;;;3.90;99.90;;;;;;5024437;28;20502;-71
2020/12/30 05:51:28;;;;;;;11.67;8.03;;;3.90;99.90;;;;;;5023350;28;20481;-71
2020/12/30 05:54:11;;;;;;;10.10;5.87;;;3.90;99.90;;;;;;5026487;28;20513;-71
2020/12/30 05:56:38;;;;;;;13.40;8.03;;;3.90;99.90;;;;;;5025139;28;20435;-71
2020/12/30 05:59:06;;;;;;;12.93;9.53;;;4.00;99.90;;;;;;5018977;28;20457;-72
2020/12/30 06:01:40;;;;;;;9.53;6.90;;;4.00;99.90;;;;;;5026825;28;20608;-73
2020/12/30 06:04:17;;;;;;;13.83;9.20;;;4.00;99.90;;;;;;5019012;28;20480;-71
2020/12/30 06:06:44;;;;;;;12.37;6.47;;;4.00;99.90;;;;;;5013667;28;20544;-71
2020/12/30 06:09:20;;;;;;;15.67;7.40;;;4.00;99.90;;;;;;5019865;28;20466;-71
2020/12/30 06:11:55;;;;;;;15.20;9.60;;;4.00;99.90;;;;;;5026184;28;20494;-72
2020/12/30 06:14:22;;;;;;;13.87;7.37;;;4.00;99.90;;;;;;5016911;28;20493;-71
2020/12/30 06:16:49;;;;;;;11.70;9.30;;;4.10;99.90;;;;;;5020212;28;20548;-71
2020/12/30 06:19:16;;;;;;;13.47;7.73;;;4.10;99.90;;;;;;5016582;28;21480;-72
2020/12/30 06:21:43;;;;;;;10.90;8.30;;;4.10;99.90;;;;;;5020364;28;20467;-71
2020/12/30 06:24:13;;;;;;;10.13;8.27;;;4.10;99.90;;;;;;5022146;28;20522;-71
2020/12/30 06:26:41;;;;;;;12.23;6.87;;;4.00;99.90;;;;;;5024037;28;20881;-71
2020/12/30 06:29:13;;;;;;;13.50;10.00;;;4.10;99.90;;;;;;5018581;28;20546;-72
2020/12/30 06:31:44;;;;;;;14.53;9.40;;;4.10;99.90;;;;;;5020931;28;20431;-71
2020/12/30 06:34:12;;;;;;;9.13;6.17;;;4.10;99.90;;;;;;5023285;28;20568;-72
2020/12/30 06:36:39;;;;;;;14.53;10.83;;;4.20;99.90;;;;;;5020466;28;20450;-71
2020/12/30 06:39:19;;;;;;;8.43;6.83;;;4.20;99.90;;;;;;5016274;28;20488;-71
2020/12/30 06:41:57;;;;;;;12.30;9.20;;;4.20;99.90;;;;;;5021598;28;20436;-71
2020/12/30 06:44:37;;;;;;;10.17;8.20;;;4.20;99.90;;;;;;5025024;28;20871;-72
2020/12/30 06:47:04;;;;;;;12.53;7.43;;;4.30;99.90;;;;;;5023995;28;20479;-72
2020/12/30 06:49:31;;;;;;;11.37;6.23;;;4.30;99.90;;;;;;5021636;28;20565;-72
2020/12/30 06:51:58;;;;;;;13.07;8.43;;;4.30;99.90;;;;;;5024032;28;20498;-72
2020/12/30 06:54:46;;;;;;;10.50;6.10;;;4.30;99.90;;;;;;5018742;28;20535;-71
2020/12/30 06:57:39;;;;;;;11.10;6.80;;;4.30;99.90;;;;;;5017363;28;20431;-71
2020/12/30 07:00:42;;;;;;;18.57;9.13;;;4.30;99.90;;;;;;5024457;28;20514;-71
2020/12/30 07:03:14;;;;;;;9.67;7.30;;;4.40;99.90;;;;;;5017426;28;20462;-72
2020/12/30 07:05:42;;;;;;;7.50;6.20;;;4.40;99.90;;;;;;5020738;28;20456;-70
2020/12/30 07:08:09;;;;;;;17.80;7.50;;;4.30;99.90;;;;;;5022559;28;20517;-71
2020/12/30 07:10:43;;;;;;;9.57;6.30;;;4.30;99.90;;;;;;5014040;28;20526;-71
2020/12/30 07:13:24;;;;;;;6.20;4.30;;;4.30;99.90;;;;;;5019926;28;20447;-71
2020/12/30 07:15:51;;;;;;;11.07;8.27;;;4.30;99.90;;;;;;5019659;28;20522;-71
2020/12/30 07:18:25;;;;;;;10.10;6.03;;;4.30;99.90;;;;;;5028795;28;20520;-71
2020/12/30 07:20:55;;;;;;;10.77;6.63;;;4.30;99.90;;;;;;5019998;28;20434;-71
2020/12/30 07:23:22;;;;;;;10.50;7.30;;;4.20;99.90;;;;;;5019455;28;20476;-71
2020/12/30 07:25:51;;;;;;;4.87;4.30;;;4.30;99.90;;;;;;5022497;28;20510;-71
2020/12/30 07:28:17;;;;;;;9.27;6.50;;;4.30;99.90;;;;;;5021128;28;20443;-71
2020/12/30 07:30:44;;;;;;;16.40;5.90;;;4.30;99.90;;;;;;5029876;28;20494;-71
2020/12/30 07:33:10;;;;;;;14.97;8.43;;;4.40;99.90;;;;;;5019711;28;20471;-72
2020/12/30 07:35:37;;;;;;;10.70;7.70;;;4.40;99.90;;;;;;5017735;28;20581;-73
2020/12/30 07:38:04;;;;;;;4.90;3.77;;;4.50;99.90;;;;;;5018501;28;21002;-72
2020/12/30 07:40:31;;;;;;;15.07;7.10;;;4.50;99.90;;;;;;5023237;28;20928;-71
2020/12/30 07:42:59;;;;;;;10.70;4.07;;;4.40;99.90;;;;;;5025469;28;20540;-72
2020/12/30 07:45:26;;;;;;;10.13;6.40;;;4.40;99.90;;;;;;5020026;28;20439;-71
2020/12/30 07:47:52;;;;;;;7.33;5.53;;;4.40;99.90;;;;;;5023597;28;20456;-72
2020/12/30 07:50:20;;;;;;;9.37;6.73;;;4.40;99.90;;;;;;5022388;28;20459;-71
2020/12/30 07:52:52;;;;;;;5.07;3.80;;;4.40;99.90;;;;;;5017235;28;20746;-72
2020/12/30 07:55:26;;;;;;;5.77;5.27;;;4.40;99.90;;;;;;5018636;28;22521;-71
2020/12/30 07:57:56;;;;;;;6.80;5.73;;;4.50;99.90;;;;;;5021576;28;20455;-72
2020/12/30 08:00:22;;;;;;;23.27;5.37;;;4.50;99.90;;;;;;5022663;28;20430;-72
2020/12/30 08:02:55;;;;;;;6.60;4.30;;;4.50;99.90;;;;;;5029590;28;21068;-72
2020/12/30 08:05:22;;;;;;;12.33;6.93;;;4.50;99.90;;;;;;5019497;28;20936;-72
2020/12/30 08:07:51;;;;;;;5.60;4.60;;;4.50;99.90;;;;;;5019006;28;20513;-72
2020/12/30 08:10:22;;;;;;;7.83;5.67;;;4.40;99.90;;;;;;5017635;28;21119;-72
2020/12/30 08:12:50;;;;;;;7.20;3.40;;;4.40;99.90;;;;;;5020007;28;20486;-72
2020/12/30 08:15:17;;;;;;;7.10;4.27;;;4.40;99.90;;;;;;5025447;28;20680;-71
2020/12/30 08:17:43;;;;;;;9.33;7.10;;;4.50;99.90;;;;;;5019658;28;20435;-72
2020/12/30 08:20:11;;;;;;;13.43;7.20;;;4.60;99.90;;;;;;5025843;28;20560;-72
2020/12/30 08:22:38;;;;;;;9.50;6.23;;;4.60;99.90;;;;;;5011397;28;20484;-72
2020/12/30 08:25:05;;;;;;;9.50;5.67;;;4.70;99.90;;;;;;5022195;28;20456;-71
2020/12/30 08:27:32;;;;;;;13.13;8.70;;;4.70;99.90;;;;;;5024181;28;20453;-72
2020/12/30 08:30:01;;;;;;;10.50;5.50;;;4.70;99.90;;;;;;5020719;28;20564;-72
2020/12/30 08:32:48;;;;;;;9.83;6.07;;;4.70;99.90;;;;;;5023869;28;20896;-72
2020/12/30 08:35:20;;;;;;;7.30;3.13;;;4.60;99.90;;;;;;5018564;28;20511;-72
2020/12/30 08:37:51;;;;;;;14.43;8.60;;;4.60;99.90;;;;;;5020206;28;20453;-73
2020/12/30 08:40:23;;;;;;;3.80;3.33;;;4.60;99.90;;;;;;5021889;28;20497;-73
2020/12/30 08:43:27;;;;;;;8.57;7.37;;;4.70;99.90;;;;;;5020380;28;20484;-73
2020/12/30 08:46:08;;;;;;;13.50;6.60;;;4.60;99.90;;;;;;5020487;28;20884;-73
2020/12/30 08:48:45;;;;;;;5.87;5.00;;;4.60;99.90;;;;;;5021868;28;20463;-73
2020/12/30 08:51:25;;;;;;;4.10;3.80;;;4.70;99.90;;;;;;5022968;28;20985;-72
2020/12/30 08:53:51;;;;;;;8.60;5.77;;;4.70;99.90;;;;;;5017962;28;20475;-72
2020/12/30 08:56:18;;;;;;;7.57;5.60;;;4.70;99.90;;;;;;5020664;28;20525;-72
2020/12/30 08:58:52;;;;;;;11.33;7.63;;;4.70;99.90;;;;;;5018806;28;20502;-72
2020/12/30 09:01:24;;;;;;;6.23;4.60;;;4.70;99.90;;;;;;5015904;28;20552;-73
2020/12/30 09:03:50;;;;;;;11.50;8.07;;;4.60;99.90;;;;;;5015438;28;24188;-72
2020/12/30 09:06:28;;;;;;;6.33;4.13;;;4.80;99.90;;;;;;5011391;28;21339;-72
2020/12/30 09:08:55;;;;;;;10.60;8.67;;;4.80;99.90;;;;;;5011884;28;20437;-72
2020/12/30 09:11:22;;;;;;;14.37;8.93;;;4.90;99.90;;;;;;5016532;28;20510;-72
2020/12/30 09:13:49;;;;;;;5.50;5.00;;;4.90;99.90;;;;;;5013617;28;20549;-73
2020/12/30 09:16:16;;;;;;;10.03;6.40;;;4.90;99.90;;;;;;5009506;28;20901;-72
2020/12/30 09:18:50;;;;;;;8.67;5.70;;;4.90;99.90;;;;;;5012899;28;20474;-72
2020/12/30 09:21:22;;;;;;;11.80;5.07;;;4.90;99.90;;;;;;5014839;28;20448;-73
2020/12/30 09:23:58;;;;;;;9.57;5.43;;;4.90;99.90;;;;;;5011632;28;21355;-72
2020/12/30 09:26:30;;;;;;;14.53;7.80;;;5.10;99.90;;;;;;5014259;28;20476;-73
2020/12/30 09:28:57;;;;;;;7.60;6.87;;;5.00;99.90;;;;;;5015009;28;20435;-72
2020/12/30 09:31:24;;;;;;;7.87;4.63;;;5.00;99.90;;;;;;5020415;28;20831;-72
2020/12/30 09:33:51;;;;;;;15.00;7.40;;;5.00;99.90;;;;;;5016305;28;20491;-73
2020/12/30 09:36:21;;;;;;;7.00;3.80;;;5.10;99.90;;;;;;5016447;28;20491;-73
2020/12/30 09:38:55;;;;;;;10.10;8.30;;;5.20;99.90;;;;;;5018462;28;20998;-73
2020/12/30 09:41:22;;;;;;;12.03;7.80;;;5.30;99.90;;;;;;5013589;28;20598;-72
2020/12/30 09:43:49;;;;;;;6.33;5.70;;;5.40;99.90;;;;;;5011584;28;20760;-72
2020/12/30 09:46:24;;;;;;;7.63;3.80;;;5.40;99.90;;;;;;5012323;28;20474;-73
2020/12/30 09:48:52;;;;;;;10.97;7.50;;;5.30;99.90;;;;;;5009286;28;20431;-72
2020/12/30 09:51:19;;;;;;;9.73;5.70;;;5.10;99.90;;;;;;5008676;28;20587;-72
2020/12/30 09:53:47;;;;;;;5.47;4.97;;;5.20;99.90;;;;;;5011390;28;20484;-73
2020/12/30 09:56:15;;;;;;;18.63;5.83;;;5.40;99.90;;;;;;5010456;28;20438;-73
2020/12/30 09:58:41;;;;;;;8.00;4.77;;;5.50;99.90;;;;;;5012458;28;20677;-73
2020/12/30 10:01:08;;;;;;;7.80;5.97;;;5.60;99.90;;;;;;5014312;28;20680;-74
2020/12/30 10:03:35;;;;;;;7.80;7.03;;;5.60;99.90;;;;;;5008975;28;20481;-72
2020/12/30 10:06:02;;;;;;;3.80;3.37;;;5.50;99.90;;;;;;5008231;28;20467;-73
2020/12/30 10:08:29;;;;;;;8.80;5.60;;;5.40;99.90;;;;;;5018482;28;20460;-73
2020/12/30 10:10:55;;;;;;;9.47;5.33;;;5.20;99.90;;;;;;5007817;28;20447;-70
2020/12/30 10:13:22;;;;;;;11.30;8.90;;;5.30;99.90;;;;;;5006037;28;20473;-72
2020/12/30 10:15:49;;;;;;;5.97;3.67;;;5.30;99.90;;;;;;5016497;28;20460;-73
2020/12/30 10:18:16;;;;;;;7.60;4.33;;;5.30;99.90;;;;;;5017186;28;20472;-73
2020/12/30 10:20:42;;;;;;;6.07;3.73;;;5.30;99.90;;;;;;5017874;28;20501;-73
2020/12/30 10:23:10;;;;;;;5.80;4.00;;;5.20;99.90;;;;;;5021126;28;21224;-72
2020/12/30 10:25:40;;;;;;;12.50;7.17;;;5.10;99.90;;;;;;5018145;28;21220;-71
2020/12/30 10:28:06;;;;;;;8.17;6.53;;;5.10;99.90;;;;;;5004470;28;20760;-72
2020/12/30 10:30:33;;;;;;;14.10;8.43;;;5.10;99.90;;;;;;5024637;28;20490;-72
2020/12/30 10:32:59;;;;;;;10.63;7.93;;;5.30;99.90;;;;;;5017620;28;20570;-72
2020/12/30 10:35:26;;;;;;;8.20;7.40;;;5.30;99.90;;;;;;5018731;28;20451;-72
2020/12/30 10:37:53;;;;;;;7.67;5.50;;;5.30;99.90;;;;;;5020089;28;20534;-72
2020/12/30 10:40:22;;;;;;;8.73;6.00;;;5.20;99.90;;;;;;5016249;28;20809;-72
2020/12/30 10:42:49;;;;;;;8.30;4.37;;;5.20;99.90;;;;;;5029687;28;20465;-72
2020/12/30 10:45:16;;;;;;;16.07;7.80;;;5.20;99.90;;;;;;5022058;28;20472;-72
2020/12/30 10:47:42;;;;;;;5.43;3.73;;;5.10;99.90;;;;;;5021765;28;20438;-72
2020/12/30 10:50:09;;;;;;;6.77;6.17;;;5.20;99.90;;;;;;5023640;28;21065;-73
2020/12/30 10:52:36;;;;;;;18.43;8.60;;;5.20;99.90;;;;;;5022090;28;20468;-72
2020/12/30 10:55:02;;;;;;;9.43;6.40;;;5.30;99.90;;;;;;5016350;28;20881;-72
2020/12/30 10:57:30;;;;;;;21.17;8.87;;;5.20;99.90;;;;;;5023356;28;20469;-72
2020/12/30 10:59:56;;;;;;;9.20;7.90;;;5.30;99.90;;;;;;5025692;28;20443;-72
2020/12/30 11:02:23;;;;;;;7.73;6.10;;;5.50;99.90;;;;;;5024436;28;20446;-71
2020/12/30 11:04:49;;;;;;;19.87;10.57;;;5.50;99.90;;;;;;5019378;28;20811;-72
2020/12/30 11:07:16;;;;;;;7.47;5.00;;;5.40;99.90;;;;;;5015363;28;20474;-72
2020/12/30 11:09:44;;;;;;;14.60;7.13;;;5.50;99.90;;;;;;5019679;28;20503;-72
2020/12/30 11:12:11;;;;;;;6.40;4.80;;;5.40;99.90;;;;;;5026502;28;20496;-72
2020/12/30 11:14:38;;;;;;;16.53;7.13;;;5.40;99.90;;;;;;5023203;28;20995;-71
2020/12/30 11:17:05;;;;;;;9.50;6.73;;;5.40;99.90;;;;;;5014904;28;20492;-72
2020/12/30 11:19:31;;;;;;;11.13;7.43;;;5.40;99.90;;;;;;5019876;28;20434;-72
2020/12/30 11:21:58;;;;;;;7.60;6.37;;;5.40;99.90;;;;;;5020446;28;20435;-72
2020/12/30 11:24:25;;;;;;;12.87;9.20;;;5.40;99.90;;;;;;5023140;28;20530;-72
2020/12/30 11:26:51;;;;;;;12.50;7.50;;;5.30;99.90;;;;;;5016605;28;20518;-72
2020/12/30 11:29:18;;;;;;;14.30;8.20;;;5.30;99.90;;;;;;5041697;28;20491;-72
2020/12/30 11:31:46;;;;;;;14.53;9.73;;;5.50;99.90;;;;;;5015950;28;20453;-72
2020/12/30 11:34:13;;;;;;;13.93;8.47;;;5.50;99.90;;;;;;5006848;28;20528;-72
2020/12/30 11:36:40;;;;;;;12.93;5.93;;;5.50;99.90;;;;;;5012031;28;20498;-73
2020/12/30 11:39:10;;;;;;;8.07;7.17;;;5.50;99.90;;;;;;5014649;28;20568;-72
2020/12/30 11:41:48;;;;;;;10.60;9.27;;;5.60;99.90;;;;;;5014830;28;20465;-72
2020/12/30 11:44:15;;;;;;;15.20;8.83;;;5.40;99.90;;;;;;5014142;28;20477;-72
2020/12/30 11:46:56;;;;;;;9.90;8.23;;;5.30;99.90;;;;;;5013551;28;20499;-72
2020/12/30 11:49:54;;;;;;;;;;;;;;;;;;;;;
2020/12/30 11:52:21;;;;;;;6.57;5.03;;;5.40;99.90;;;;;;5023111;28;20526;-71
2020/12/30 11:54:48;;;;;;;5.17;4.73;;;5.40;99.90;;;;;;5021625;28;20447;-72
2020/12/30 11:57:15;;;;;;;11.03;7.90;;;5.40;99.90;;;;;;5016353;28;20435;-73
2020/12/30 11:59:41;;;;;;;18.23;6.83;;;5.40;99.90;;;;;;5018827;28;20434;-72
2020/12/30 12:02:12;;;;;;;11.50;7.07;;;5.40;99.90;;;;;;5020464;28;20446;-72
2020/12/30 12:04:39;;;;;;;8.27;7.20;;;5.30;99.90;;;;;;5018880;28;21359;-72
2020/12/30 12:07:06;;;;;;;7.23;5.90;;;5.10;99.90;;;;;;5021807;28;20912;-72
2020/12/30 12:09:32;;;;;;;9.57;5.87;;;5.20;99.90;;;;;;5018340;28;20547;-71
2020/12/30 12:12:00;;;;;;;17.60;11.03;;;5.20;99.90;;;;;;5026683;28;20439;-72
2020/12/30 12:14:27;;;;;;;11.77;7.43;;;5.20;99.90;;;;;;5022796;28;20461;-72
2020/12/30 12:16:55;;;;;;;12.67;8.17;;;5.30;99.90;;;;;;5012576;28;20469;-71
2020/12/30 12:19:23;;;;;;;18.93;8.67;;;5.30;99.90;;;;;;5023946;28;20449;-72
2020/12/30 12:21:50;;;;;;;15.20;9.30;;;5.40;99.90;;;;;;5011584;28;21132;-72
2020/12/30 12:24:17;;;;;;;16.67;8.07;;;5.30;99.90;;;;;;5013230;28;20822;-72
2020/12/30 12:26:44;;;;;;;11.03;5.40;;;5.40;99.90;;;;;;5016714;28;20458;-71
2020/12/30 12:29:41;;;;;;;17.03;9.57;;;5.30;99.90;;;;;;5018459;28;20497;-71
2020/12/30 12:32:09;;;;;;;12.27;5.37;;;5.30;99.90;;;;;;5023680;28;20491;-71
2020/12/30 12:34:37;;;;;;;10.73;6.93;;;5.30;99.90;;;;;;5019586;28;20507;-71
2020/12/30 12:37:06;;;;;;;14.33;9.30;;;5.30;99.90;;;;;;5015618;28;20446;-71
2020/12/30 12:39:33;;;;;;;16.47;9.53;;;5.30;99.90;;;;;;5027193;28;20826;-72
2020/12/30 12:41:59;;;;;;;7.87;5.07;;;5.40;99.90;;;;;;5033928;28;20868;-71
2020/12/30 12:44:26;;;;;;;14.87;10.00;;;5.40;99.90;;;;;;5035314;28;20457;-71
2020/12/30 12:46:53;;;;;;;13.73;7.83;;;5.30;99.90;;;;;;5032325;28;20477;-71
2020/12/30 12:49:19;;;;;;;9.73;6.07;;;5.30;99.90;;;;;;5033837;28;20471;-72
2020/12/30 12:51:47;;;;;;;9.03;6.63;;;5.30;99.90;;;;;;5027568;28;20497;-71
2020/12/30 12:54:14;;;;;;;9.63;7.60;;;5.30;99.90;;;;;;5032954;28;20476;-71
2020/12/30 12:56:41;;;;;;;29.40;9.77;;;5.30;99.90;;;;;;5033126;28;20436;-71
2020/12/30 12:59:08;;;;;;;8.90;7.27;;;5.30;99.90;;;;;;5037538;28;20463;-72
2020/12/30 13:01:35;;;;;;;14.00;8.73;;;5.40;99.90;;;;;;5036402;28;20456;-71